createdAt,value
2022-08-21T00:04:40.067Z,21.72
2022-08-21T00:09:59.322Z,21.79
2022-08-21T00:15:02.278Z,21.91
2022-08-21T00:20:09.769Z,22.00
2022-08-21T00:25:14.074Z,22.03
2022-08-21T00:30:22.795Z,22.05
2022-08-21T00:35:35.551Z,22.09
2022-08-21T00:40:43.531Z,22.09
2022-08-21T00:45:46.905Z,22.10
2022-08-21T00:51:05.051Z,22.09
2022-08-21T00:56:11.324Z,22.09
2022-08-21T01:01:14.681Z,22.09
2022-08-21T01:06:17.807Z,22.12
2022-08-21T01:11:21.811Z,22.14
2022-08-21T01:16:25.055Z,22.11
2022-08-21T01:21:28.736Z,22.08
2022-08-21T01:26:35.726Z,22.11
2022-08-21T01:31:39.578Z,22.15
2022-08-21T01:36:43.083Z,22.16
2022-08-21T01:41:45.823Z,22.13
2022-08-21T01:46:49.286Z,22.09
2022-08-21T01:51:52.790Z,22.07
2022-08-21T01:56:56.008Z,22.10
2022-08-21T02:01:58.708Z,22.12
2022-08-21T02:07:02.442Z,22.12
2022-08-21T02:12:05.301Z,22.09
2022-08-21T02:17:09.329Z,22.10
2022-08-21T02:22:12.608Z,22.11
2022-08-21T02:27:15.329Z,22.07
2022-08-21T02:32:18.062Z,22.04
2022-08-21T02:37:21.345Z,21.98
2022-08-21T02:42:24.076Z,21.87
2022-08-21T02:47:26.765Z,21.78
2022-08-21T02:52:29.455Z,21.68
2022-08-21T02:57:33.406Z,21.58
2022-08-21T03:02:36.134Z,21.53
2022-08-21T03:07:40.087Z,21.56
2022-08-21T03:12:43.020Z,21.63
2022-08-21T03:17:47.047Z,21.68
2022-08-21T03:22:53.135Z,21.67
2022-08-21T03:27:58.810Z,21.69
2022-08-21T03:33:03.692Z,21.74
2022-08-21T03:38:06.437Z,21.80
2022-08-21T03:43:10.734Z,21.80
2022-08-21T03:48:14.169Z,21.78
2022-08-21T03:53:18.117Z,21.78
2022-08-21T03:58:24.459Z,21.79
2022-08-21T04:03:28.381Z,21.84
2022-08-21T04:08:31.386Z,21.88
2022-08-21T04:13:35.151Z,21.89
2022-08-21T04:18:47.547Z,21.88
2022-08-21T04:23:50.716Z,21.88
2022-08-21T04:28:53.554Z,21.97
2022-08-21T04:33:57.800Z,22.04
2022-08-21T04:39:00.832Z,22.06
2022-08-21T04:44:07.777Z,22.10
2022-08-21T04:49:11.098Z,22.14
2022-08-21T04:54:19.990Z,22.20
2022-08-21T04:59:29.101Z,22.23
2022-08-21T05:04:35.348Z,22.25
2022-08-21T05:09:39.760Z,22.29
2022-08-21T05:14:43.585Z,22.39
2022-08-21T05:19:46.538Z,22.49
2022-08-21T05:24:49.520Z,22.51
2022-08-21T05:29:52.200Z,22.52
2022-08-21T05:34:55.882Z,22.50
2022-08-21T05:40:20.396Z,22.56
2022-08-21T05:45:41.968Z,22.58
2022-08-21T05:50:49.387Z,22.56
2022-08-21T05:55:52.794Z,22.58
2022-08-21T06:00:56.210Z,22.64
2022-08-21T06:05:59.622Z,22.69
2022-08-21T06:11:03.593Z,22.73
2022-08-21T06:16:11.329Z,22.76
2022-08-21T06:21:18.785Z,22.83
2022-08-21T06:26:21.946Z,22.89
2022-08-21T06:31:27.071Z,22.92
2022-08-21T06:36:29.849Z,22.96
2022-08-21T06:41:39.046Z,23.01
2022-08-21T06:46:42.060Z,23.14
2022-08-21T06:51:47.407Z,23.31
2022-08-21T06:56:50.271Z,23.45
2022-08-21T07:01:53.039Z,23.66
2022-08-21T07:06:55.991Z,23.79
2022-08-21T07:11:59.006Z,23.83
2022-08-21T07:17:01.947Z,24.05
2022-08-21T07:22:04.813Z,24.36
2022-08-21T07:27:10.025Z,24.58
2022-08-21T07:32:13.353Z,24.86
2022-08-21T07:37:16.110Z,24.97
2022-08-21T07:42:20.258Z,24.96
2022-08-21T07:47:29.463Z,24.90
2022-08-21T07:52:46.651Z,25.00
2022-08-21T07:57:49.844Z,25.21
2022-08-21T08:02:55.099Z,25.37
2022-08-21T08:07:58.024Z,25.45
2022-08-21T08:13:01.606Z,25.50
2022-08-21T08:18:04.735Z,25.69
2022-08-21T08:23:07.845Z,26.05
2022-08-21T08:28:17.121Z,26.37
2022-08-21T08:33:21.014Z,26.65
2022-08-21T08:38:25.879Z,26.83
2022-08-21T08:43:31.093Z,26.97
2022-08-21T08:48:53.171Z,27.00
2022-08-21T08:54:05.201Z,27.18
2022-08-21T08:59:27.154Z,27.30
2022-08-21T09:04:30.587Z,27.41
2022-08-21T09:09:44.918Z,27.60
2022-08-21T09:15:07.506Z,27.77
2022-08-21T09:20:24.086Z,27.90
2022-08-21T09:25:31.962Z,27.76
2022-08-21T09:30:34.669Z,27.49
2022-08-21T09:35:38.394Z,27.39
2022-08-21T09:40:48.030Z,27.33
2022-08-21T09:46:04.091Z,27.22
2022-08-21T09:51:11.997Z,27.34
2022-08-21T09:56:58.377Z,27.77
2022-08-21T10:02:17.380Z,28.54
2022-08-21T10:07:23.245Z,29.00
2022-08-21T10:12:42.387Z,29.00
2022-08-21T10:17:50.974Z,29.00
2022-08-21T10:23:06.624Z,28.96
2022-08-21T10:28:32.015Z,28.97
2022-08-21T10:33:49.853Z,29.12
2022-08-21T10:39:26.532Z,29.26
2022-08-21T10:44:43.923Z,29.46
2022-08-21T10:50:13.746Z,29.42
2022-08-21T10:55:23.114Z,29.19
2022-08-21T11:00:54.716Z,29.04
2022-08-21T11:06:12.215Z,29.08
2022-08-21T11:11:47.003Z,29.49
2022-08-21T11:17:14.312Z,29.74
2022-08-21T11:22:16.954Z,29.80
2022-08-21T11:27:25.514Z,30.01
2022-08-21T11:32:39.845Z,30.19
2022-08-21T11:37:45.491Z,30.50
2022-08-21T11:42:51.470Z,30.65
2022-08-21T11:48:05.329Z,30.44
2022-08-21T11:53:18.652Z,30.22
2022-08-21T11:58:37.634Z,29.99
2022-08-21T12:03:52.131Z,29.81
2022-08-21T12:09:05.170Z,29.75
2022-08-21T12:14:07.951Z,29.87
2022-08-21T12:19:21.999Z,30.08
2022-08-21T12:24:27.828Z,30.21
2022-08-21T12:29:32.741Z,30.19
2022-08-21T12:34:39.125Z,30.07
2022-08-21T12:39:46.021Z,29.97
2022-08-21T12:45:01.303Z,29.81
2022-08-21T12:50:08.358Z,29.76
2022-08-21T12:55:26.038Z,29.75
2022-08-21T13:00:30.668Z,29.75
2022-08-21T13:05:37.900Z,29.70
2022-08-21T13:10:42.974Z,29.63
2022-08-21T13:15:47.408Z,29.51
2022-08-21T13:20:52.077Z,29.28
2022-08-21T13:25:56.748Z,28.91
2022-08-21T13:31:02.525Z,28.43
2022-08-21T13:36:10.119Z,27.99
2022-08-21T13:41:28.403Z,27.70
2022-08-21T13:46:35.084Z,27.36
2022-08-21T13:51:38.495Z,27.04
2022-08-21T13:56:47.772Z,26.79
2022-08-21T14:02:01.086Z,26.49
2022-08-21T14:07:18.649Z,26.28
2022-08-21T14:12:43.170Z,26.11
2022-08-21T14:17:46.805Z,26.00
2022-08-21T14:22:49.911Z,26.00
2022-08-21T14:28:00.160Z,25.95
2022-08-21T14:33:05.640Z,25.92
2022-08-21T14:38:18.664Z,25.88
2022-08-21T14:43:22.511Z,25.81
2022-08-21T14:48:25.601Z,25.67
2022-08-21T14:53:28.390Z,25.56
2022-08-21T14:58:32.142Z,25.55
2022-08-21T15:03:35.140Z,25.55
2022-08-21T15:08:38.126Z,25.53
2022-08-21T15:13:41.098Z,25.51
2022-08-21T15:18:44.218Z,25.50
2022-08-21T15:23:46.968Z,25.43
2022-08-21T15:28:49.891Z,25.25
2022-08-21T15:33:53.607Z,25.00
2022-08-21T15:38:56.321Z,24.78
2022-08-21T15:43:59.017Z,24.56
2022-08-21T15:49:01.714Z,24.27
2022-08-21T15:54:04.853Z,23.95
2022-08-21T15:59:18.083Z,23.76
2022-08-21T16:04:27.002Z,23.62
2022-08-21T16:09:29.697Z,23.50
2022-08-21T16:14:35.391Z,23.40
2022-08-21T16:19:38.778Z,23.29
2022-08-21T16:24:41.523Z,23.24
2022-08-21T16:29:46.433Z,23.22
2022-08-21T16:34:49.779Z,23.20
2022-08-21T16:39:53.368Z,23.12
2022-08-21T16:44:57.181Z,23.05
2022-08-21T16:49:59.957Z,23.00
2022-08-21T16:55:05.315Z,23.00
2022-08-21T17:00:13.953Z,22.97
2022-08-21T17:05:17.203Z,22.91
2022-08-21T17:10:20.177Z,22.88
2022-08-21T17:15:27.641Z,22.88
2022-08-21T17:20:31.570Z,22.86
2022-08-21T17:25:37.101Z,22.88
2022-08-21T17:30:46.156Z,22.78
2022-08-21T17:35:48.998Z,22.67
2022-08-21T17:40:52.167Z,22.55
2022-08-21T17:45:55.026Z,22.44
2022-08-21T17:50:57.820Z,22.33
2022-08-21T17:56:01.290Z,22.24
2022-08-21T18:01:05.892Z,22.18
2022-08-21T18:06:08.785Z,22.17
2022-08-21T18:11:23.099Z,22.08
2022-08-21T18:16:29.421Z,21.96
2022-08-21T18:21:32.607Z,21.84
2022-08-21T18:26:38.699Z,21.81
2022-08-21T18:31:43.603Z,21.72
2022-08-21T18:36:46.442Z,21.61
2022-08-21T18:41:50.419Z,21.61
2022-08-21T18:47:08.487Z,21.61
2022-08-21T18:52:20.262Z,21.59
2022-08-21T18:57:28.209Z,21.57
2022-08-21T19:02:31.053Z,21.59
2022-08-21T19:07:34.427Z,21.59
2022-08-21T19:12:39.034Z,21.65
2022-08-21T19:17:42.950Z,21.65
2022-08-21T19:22:53.427Z,21.49
2022-08-21T19:27:56.757Z,21.30
2022-08-21T19:33:00.136Z,21.17
2022-08-21T19:38:03.329Z,20.98
2022-08-21T19:43:11.557Z,20.90
2022-08-21T19:48:18.961Z,20.83
2022-08-21T19:53:21.978Z,20.76
2022-08-21T19:58:40.274Z,20.71
2022-08-21T20:03:43.409Z,20.69
2022-08-21T20:08:48.321Z,20.66
2022-08-21T20:13:51.321Z,20.65
2022-08-21T20:18:55.995Z,20.67
2022-08-21T20:23:58.713Z,20.69
2022-08-21T20:29:05.491Z,20.72
2022-08-21T20:34:09.900Z,20.65
2022-08-21T20:39:14.261Z,20.52
2022-08-21T20:44:17.714Z,20.41
2022-08-21T20:49:25.901Z,20.40
2022-08-21T20:54:44.549Z,20.42
2022-08-21T20:59:50.350Z,20.42
2022-08-21T21:04:55.993Z,20.36
2022-08-21T21:10:02.522Z,20.29
2022-08-21T21:15:14.296Z,20.28
2022-08-21T21:20:36.986Z,20.24
2022-08-21T21:25:49.303Z,20.15
2022-08-21T21:30:57.866Z,20.11
2022-08-21T21:36:22.555Z,20.11
2022-08-21T21:41:36.883Z,20.10
2022-08-21T21:47:14.694Z,20.11
2022-08-21T21:52:56.837Z,20.07
2022-08-21T21:58:28.961Z,20.00
2022-08-21T22:04:10.027Z,19.91
2022-08-21T22:09:22.832Z,19.80
2022-08-21T22:14:35.213Z,19.67
2022-08-21T22:19:43.493Z,19.47
2022-08-21T22:24:53.690Z,19.35
2022-08-21T22:30:00.282Z,19.27
2022-08-21T22:35:13.634Z,19.20
2022-08-21T22:40:31.839Z,19.17
2022-08-21T22:46:00.708Z,19.17
2022-08-21T22:51:05.862Z,19.12
2022-08-21T22:56:10.763Z,19.02
2022-08-21T23:01:22.416Z,18.90
2022-08-21T23:06:40.112Z,18.82
2022-08-21T23:11:50.961Z,18.81
2022-08-21T23:17:03.221Z,18.81
2022-08-21T23:22:43.842Z,18.79
2022-08-21T23:28:27.934Z,18.80
2022-08-21T23:34:05.785Z,18.75
2022-08-21T23:39:27.529Z,18.65
2022-08-21T23:44:40.992Z,18.64
2022-08-21T23:50:05.726Z,18.61
2022-08-21T23:55:37.717Z,18.60
